Time;durP1;ratioP1;P1;durP2;ratioP2;P2;SDS_P1;SDS_P2;PMS_P1;PMS_P2;Temp;Humidity;BMP_temperature;BMP_pressure;BME280_temperature;BME280_humidity;BME280_pressure;Samples;Min_cycle;Max_cycle;Signal;HPM_P1;HPM_P2
2022/07/06 00:01:57;;;;;;;12.43;3.75;;;13.40;99.90;;;;;;5075216;28;20475;-67
2022/07/06 00:04:24;;;;;;;8.90;2.50;;;13.40;99.90;;;;;;5073735;28;20474;-68
2022/07/06 00:06:52;;;;;;;7.93;2.13;;;13.40;99.90;;;;;;5056762;28;20386;-68
2022/07/06 00:09:19;;;;;;;9.48;1.55;;;13.40;99.90;;;;;;5075080;28;20024;-68
2022/07/06 00:11:46;;;;;;;13.18;2.28;;;13.40;99.90;;;;;;5075027;28;20128;-73
2022/07/06 00:14:14;;;;;;;10.07;2.20;;;13.40;99.90;;;;;;5074872;28;20023;-75
2022/07/06 00:16:44;;;;;;;6.55;2.33;;;13.40;99.90;;;;;;5074635;28;20028;-69
2022/07/06 00:19:11;;;;;;;14.43;2.28;;;13.40;99.90;;;;;;5074937;28;20020;-74
2022/07/06 00:21:38;;;;;;;9.60;2.80;;;13.50;99.90;;;;;;5074895;28;20542;-68
2022/07/06 00:24:06;;;;;;;11.90;3.08;;;13.50;99.90;;;;;;5072328;28;20103;-75
2022/07/06 00:26:33;;;;;;;10.63;2.38;;;13.50;99.90;;;;;;5074747;28;20039;-74
2022/07/06 00:29:01;;;;;;;12.00;2.40;;;13.50;99.90;;;;;;5074222;28;20024;-68
2022/07/06 00:31:28;;;;;;;7.20;1.85;;;13.60;99.90;;;;;;5074548;28;20035;-69
2022/07/06 00:33:55;;;;;;;10.50;2.17;;;13.60;99.90;;;;;;5073721;28;20017;-68
2022/07/06 00:36:22;;;;;;;5.78;2.15;;;13.60;99.90;;;;;;5074822;28;20055;-67
2022/07/06 00:38:50;;;;;;;9.27;1.65;;;13.70;99.90;;;;;;5070334;28;20028;-67
2022/07/06 00:41:17;;;;;;;8.27;1.92;;;13.70;99.90;;;;;;5073634;28;20025;-73
2022/07/06 00:43:55;;;;;;;8.07;1.30;;;13.70;99.90;;;;;;5073022;28;20417;-67
2022/07/06 00:46:32;;;;;;;5.30;1.23;;;13.60;99.90;;;;;;5074396;28;20021;-76
2022/07/06 00:49:00;;;;;;;12.95;2.30;;;13.60;99.90;;;;;;5073710;28;20029;-67
2022/07/06 00:51:31;;;;;;;10.63;1.92;;;13.60;99.90;;;;;;5073981;28;20097;-69
2022/07/06 00:54:03;;;;;;;12.95;1.95;;;13.60;99.90;;;;;;5073331;28;20021;-75
2022/07/06 00:56:32;;;;;;;7.53;1.83;;;13.60;99.90;;;;;;5073739;28;20017;-75
2022/07/06 00:59:03;;;;;;;12.88;2.28;;;13.60;99.90;;;;;;5073488;28;20025;-73
2022/07/06 01:01:30;;;;;;;9.35;1.30;;;13.60;99.90;;;;;;5073102;28;20117;-68
2022/07/06 01:03:57;;;;;;;14.55;2.55;;;13.60;99.90;;;;;;5073034;28;20028;-68
2022/07/06 01:06:25;;;;;;;6.90;1.55;;;13.60;99.90;;;;;;5071637;28;20032;-74
2022/07/06 01:08:52;;;;;;;6.30;1.20;;;13.60;99.90;;;;;;5071239;28;20024;-75
2022/07/06 01:11:20;;;;;;;7.53;2.33;;;13.60;99.90;;;;;;5073181;28;20070;-67
2022/07/06 01:13:50;;;;;;;5.88;1.75;;;13.60;99.90;;;;;;5071826;28;20351;-68
2022/07/06 01:16:18;;;;;;;4.63;0.90;;;13.60;99.90;;;;;;5072193;28;20074;-72
2022/07/06 01:18:46;;;;;;;5.00;1.25;;;13.70;99.90;;;;;;5067985;28;20024;-75
2022/07/06 01:21:14;;;;;;;6.78;1.10;;;13.60;99.90;;;;;;5072374;28;20025;-72
2022/07/06 01:23:47;;;;;;;3.50;1.23;;;13.60;99.90;;;;;;5072172;28;20993;-68
2022/07/06 01:26:18;;;;;;;7.30;1.40;;;13.70;99.90;;;;;;5070503;28;20521;-68
2022/07/06 01:28:47;;;;;;;2.53;0.98;;;13.70;99.90;;;;;;5072900;28;20027;-67
2022/07/06 01:31:25;;;;;;;5.20;1.17;;;13.70;99.90;;;;;;5074134;28;20028;-67
2022/07/06 01:33:55;;;;;;;5.15;1.00;;;13.70;99.90;;;;;;5073448;28;20020;-77
2022/07/06 01:36:23;;;;;;;8.10;1.23;;;13.70;99.90;;;;;;5073828;28;20029;-76
2022/07/06 01:38:58;;;;;;;2.85;0.75;;;13.80;99.90;;;;;;5073680;28;20021;-75
2022/07/06 01:41:25;;;;;;;3.88;1.00;;;13.70;99.90;;;;;;5073732;28;20103;-76
2022/07/06 01:43:53;;;;;;;2.85;0.95;;;13.80;99.90;;;;;;5064597;28;20059;-69
2022/07/06 01:46:20;;;;;;;2.78;1.02;;;13.70;99.90;;;;;;5074021;28;20043;-67
2022/07/06 01:48:48;;;;;;;5.20;0.80;;;13.70;99.90;;;;;;5074024;28;20028;-67
2022/07/06 01:51:15;;;;;;;3.70;1.00;;;13.80;99.90;;;;;;5072615;28;20028;-67
2022/07/06 01:53:42;;;;;;;4.32;1.13;;;13.80;99.90;;;;;;5073799;28;20475;-68
2022/07/06 01:56:11;;;;;;;4.90;0.80;;;13.70;99.90;;;;;;5073595;28;20031;-67
2022/07/06 01:58:39;;;;;;;3.67;1.80;;;13.80;99.90;;;;;;5072514;28;20024;-68
2022/07/06 02:01:18;;;;;;;3.08;0.68;;;13.80;99.90;;;;;;5072082;28;20036;-67
2022/07/06 02:03:46;;;;;;;4.63;0.95;;;13.80;99.90;;;;;;5070589;28;20050;-77
2022/07/06 02:06:14;;;;;;;7.18;1.25;;;13.80;99.90;;;;;;5071983;28;20048;-69
2022/07/06 02:08:42;;;;;;;5.68;1.38;;;13.80;99.90;;;;;;5073113;28;20525;-68
2022/07/06 02:11:11;;;;;;;9.90;1.60;;;13.80;99.90;;;;;;5055340;28;20549;-67
2022/07/06 02:13:38;;;;;;;5.65;1.80;;;13.90;99.90;;;;;;5072980;28;20031;-76
2022/07/06 02:16:06;;;;;;;6.72;1.23;;;13.90;99.90;;;;;;5072749;28;20020;-76
2022/07/06 02:18:33;;;;;;;8.98;2.38;;;13.90;99.90;;;;;;5072637;28;20020;-68
2022/07/06 02:21:01;;;;;;;9.75;1.80;;;13.90;99.90;;;;;;5072598;28;20017;-75
2022/07/06 02:23:28;;;;;;;14.52;1.98;;;13.90;99.90;;;;;;5072351;28;20478;-74
2022/07/06 02:25:55;;;;;;;4.63;1.50;;;13.90;99.90;;;;;;5070030;28;20018;-77
2022/07/06 02:28:23;;;;;;;6.72;1.48;;;13.90;99.90;;;;;;5072500;28;20120;-78
2022/07/06 02:30:50;;;;;;;6.95;1.10;;;14.00;99.90;;;;;;5072069;28;20021;-68
2022/07/06 02:33:17;;;;;;;5.80;1.50;;;14.00;99.90;;;;;;5072216;28;20036;-67
2022/07/06 02:35:44;;;;;;;4.25;1.33;;;14.00;99.90;;;;;;5073187;28;20050;-74
2022/07/06 02:38:12;;;;;;;8.77;1.88;;;14.00;99.90;;;;;;5072514;28;20107;-72
2022/07/06 02:40:39;;;;;;;11.75;2.13;;;13.90;99.90;;;;;;5072053;28;20039;-68
2022/07/06 02:43:07;;;;;;;11.98;1.95;;;13.90;99.90;;;;;;5072359;28;20024;-68
2022/07/06 02:45:34;;;;;;;6.30;1.63;;;13.90;99.90;;;;;;5072667;28;20099;-68
2022/07/06 02:48:02;;;;;;;4.93;1.40;;;13.90;99.90;;;;;;5072333;28;20017;-68
2022/07/06 02:50:29;;;;;;;5.43;1.38;;;13.90;99.90;;;;;;5072249;28;20028;-67
2022/07/06 02:52:58;;;;;;;6.38;1.45;;;13.80;99.90;;;;;;5072146;28;20033;-70
2022/07/06 02:55:25;;;;;;;6.25;1.40;;;13.80;99.90;;;;;;5072006;28;20032;-77
2022/07/06 02:57:52;;;;;;;5.50;1.42;;;13.80;99.90;;;;;;5069918;28;20017;-77
2022/07/06 03:00:20;;;;;;;7.72;1.27;;;13.80;99.90;;;;;;5072214;28;20045;-68
2022/07/06 03:02:47;;;;;;;5.40;1.20;;;13.80;99.90;;;;;;5071932;28;20035;-67
2022/07/06 03:05:14;;;;;;;2.47;1.35;;;13.80;99.90;;;;;;5071782;28;20023;-67
2022/07/06 03:07:42;;;;;;;7.65;1.50;;;13.80;99.90;;;;;;5072211;28;20029;-69
2022/07/06 03:10:09;;;;;;;8.38;0.98;;;13.70;99.90;;;;;;5071926;28;20016;-77
2022/07/06 03:12:36;;;;;;;7.72;2.30;;;13.80;99.90;;;;;;5071930;28;20398;-76
2022/07/06 03:15:04;;;;;;;7.15;1.52;;;13.80;99.90;;;;;;5071942;28;20043;-74
2022/07/06 03:17:31;;;;;;;7.43;1.27;;;13.80;99.90;;;;;;5071649;28;20021;-69
2022/07/06 03:19:59;;;;;;;6.03;1.58;;;13.80;99.90;;;;;;5071608;28;20078;-69
2022/07/06 03:22:26;;;;;;;5.47;2.22;;;13.80;99.90;;;;;;5069395;28;20031;-73
2022/07/06 03:24:53;;;;;;;7.22;1.20;;;13.80;99.90;;;;;;5071551;28;20025;-68
2022/07/06 03:27:21;;;;;;;5.18;1.83;;;13.80;99.90;;;;;;5071633;28;20528;-67
2022/07/06 03:29:48;;;;;;;5.05;0.77;;;13.80;99.90;;;;;;5067318;28;20024;-73
2022/07/06 03:32:15;;;;;;;5.07;1.88;;;13.80;99.90;;;;;;5071596;28;20118;-70
2022/07/06 03:34:43;;;;;;;4.32;1.90;;;13.70;99.90;;;;;;5071701;28;20036;-72
2022/07/06 03:37:10;;;;;;;5.30;0.95;;;13.70;99.90;;;;;;5070684;28;20020;-68
2022/07/06 03:39:37;;;;;;;4.53;0.90;;;13.70;99.90;;;;;;5071630;28;20054;-68
2022/07/06 03:42:05;;;;;;;5.75;1.40;;;13.70;99.90;;;;;;5071792;28;20024;-67
2022/07/06 03:44:32;;;;;;;4.55;0.80;;;13.70;99.90;;;;;;5072181;28;20100;-68
2022/07/06 03:46:59;;;;;;;3.75;1.23;;;13.70;99.90;;;;;;5071495;28;20470;-67
2022/07/06 03:49:27;;;;;;;5.95;1.40;;;13.70;99.90;;;;;;5088052;28;20497;-74
2022/07/06 03:51:54;;;;;;;5.03;1.67;;;13.80;99.90;;;;;;5091917;28;20085;-68
2022/07/06 03:54:22;;;;;;;9.88;1.15;;;13.80;99.90;;;;;;5092710;28;20020;-70
2022/07/06 03:56:49;;;;;;;5.18;1.50;;;13.80;99.90;;;;;;5091787;28;20028;-73
2022/07/06 03:59:16;;;;;;;6.88;1.20;;;13.80;99.90;;;;;;5092455;28;20493;-67
2022/07/06 04:01:44;;;;;;;5.85;1.80;;;13.80;99.90;;;;;;5091862;28;20048;-67
2022/07/06 04:04:11;;;;;;;12.40;1.90;;;13.70;99.90;;;;;;5092516;28;20033;-68
2022/07/06 04:06:39;;;;;;;12.13;1.75;;;13.80;99.90;;;;;;5092199;28;20020;-73
2022/07/06 04:09:06;;;;;;;10.48;1.90;;;13.80;99.90;;;;;;5074128;28;20028;-73
2022/07/06 04:11:34;;;;;;;9.52;1.70;;;13.80;99.90;;;;;;5091731;28;20086;-73
2022/07/06 04:14:01;;;;;;;3.50;1.17;;;13.80;99.90;;;;;;5085051;28;20027;-72
2022/07/06 04:16:28;;;;;;;4.80;1.42;;;13.80;99.90;;;;;;5083128;28;20036;-73
2022/07/06 04:18:56;;;;;;;7.57;1.58;;;13.80;99.90;;;;;;5084546;28;20043;-69
2022/07/06 04:21:23;;;;;;;8.63;2.03;;;13.80;99.90;;;;;;5083905;28;20031;-74
2022/07/06 04:23:50;;;;;;;6.10;1.55;;;13.80;99.90;;;;;;5074422;28;20035;-74
2022/07/06 04:26:18;;;;;;;6.60;1.30;;;13.80;99.90;;;;;;5074652;28;20051;-74
2022/07/06 04:28:45;;;;;;;7.25;1.45;;;13.80;99.90;;;;;;5073997;28;20166;-72
2022/07/06 04:31:15;;;;;;;5.78;1.25;;;13.80;99.90;;;;;;5071799;28;20025;-71
2022/07/06 04:33:43;;;;;;;3.88;1.08;;;13.80;99.90;;;;;;5075021;28;20098;-72
2022/07/06 04:36:11;;;;;;;4.43;1.15;;;13.80;99.90;;;;;;5074990;28;20158;-74
2022/07/06 04:38:38;;;;;;;4.95;1.23;;;13.80;99.90;;;;;;5075032;28;20031;-72
2022/07/06 04:41:05;;;;;;;7.03;0.88;;;13.80;99.90;;;;;;5074804;28;20025;-72
2022/07/06 04:43:33;;;;;;;4.93;1.40;;;13.90;99.90;;;;;;5074906;28;20027;-73
2022/07/06 04:46:01;;;;;;;4.65;1.83;;;13.80;99.90;;;;;;5056794;28;20052;-73
2022/07/06 04:48:28;;;;;;;8.55;1.50;;;13.80;99.90;;;;;;5075112;28;20378;-72
2022/07/06 04:50:55;;;;;;;6.57;2.33;;;13.80;99.90;;;;;;5074738;28;20032;-73
2022/07/06 04:53:23;;;;;;;5.50;1.77;;;13.80;99.90;;;;;;5074971;28;20497;-73
2022/07/06 04:55:50;;;;;;;5.38;1.48;;;13.80;99.90;;;;;;5074339;28;20036;-73
2022/07/06 04:58:17;;;;;;;3.38;1.60;;;13.70;99.90;;;;;;5074716;28;20029;-74
2022/07/06 05:00:45;;;;;;;7.43;1.40;;;13.80;99.90;;;;;;5074591;28;20068;-67
2022/07/06 05:03:12;;;;;;;8.60;2.15;;;13.80;99.90;;;;;;5074837;28;20021;-71
2022/07/06 05:05:39;;;;;;;5.55;1.40;;;13.80;99.90;;;;;;5074730;28;20028;-68
2022/07/06 05:08:07;;;;;;;7.70;1.90;;;13.80;99.90;;;;;;5074330;28;20025;-70
2022/07/06 05:10:34;;;;;;;5.18;1.38;;;13.80;99.90;;;;;;5074137;28;20111;-72
2022/07/06 05:13:01;;;;;;;5.63;1.40;;;13.70;99.90;;;;;;5074074;28;20251;-72
2022/07/06 05:15:30;;;;;;;7.22;1.67;;;13.70;99.90;;;;;;5074505;28;20489;-72
2022/07/06 05:17:57;;;;;;;6.65;1.92;;;13.70;99.90;;;;;;5073960;28;20060;-71
2022/07/06 05:20:24;;;;;;;8.27;1.65;;;13.60;99.90;;;;;;5074311;28;20411;-72
2022/07/06 05:22:52;;;;;;;3.47;1.35;;;13.60;99.90;;;;;;5074152;28;20060;-70
2022/07/06 05:25:19;;;;;;;4.43;1.30;;;13.60;99.90;;;;;;5074266;28;20359;-69
2022/07/06 05:27:46;;;;;;;5.28;0.90;;;13.60;99.90;;;;;;5073714;28;20021;-71
2022/07/06 05:30:15;;;;;;;7.22;1.92;;;13.50;99.90;;;;;;5073964;28;20013;-72
2022/07/06 05:32:42;;;;;;;3.03;0.88;;;13.50;99.90;;;;;;5085237;28;20089;-73
2022/07/06 05:35:10;;;;;;;9.07;1.55;;;13.40;99.90;;;;;;5094299;28;20028;-72
2022/07/06 05:37:37;;;;;;;4.35;0.95;;;13.40;99.90;;;;;;5093612;28;20035;-73
2022/07/06 05:40:08;;;;;;;5.75;1.98;;;13.40;99.90;;;;;;5093739;28;20047;-73
2022/07/06 05:42:35;;;;;;;4.10;1.10;;;13.30;99.90;;;;;;5092699;28;20396;-69
2022/07/06 05:45:04;;;;;;;9.93;1.83;;;13.30;99.90;;;;;;5088177;28;20487;-67
2022/07/06 05:50:17;;;;;;;10.37;1.93;;;13.20;99.90;;;;;;5072910;28;20145;-68
2022/07/06 05:52:55;;;;;;;4.30;1.35;;;13.20;99.90;;;;;;5072260;28;20031;-73
2022/07/06 05:55:23;;;;;;;9.40;1.27;;;13.20;99.90;;;;;;5072136;28;20055;-72
2022/07/06 05:57:50;;;;;;;6.10;1.25;;;13.30;99.90;;;;;;5073038;28;20033;-73
2022/07/06 06:00:17;;;;;;;6.45;1.45;;;13.30;99.90;;;;;;5054982;28;20402;-74
2022/07/06 06:02:45;;;;;;;5.25;1.80;;;13.40;99.90;;;;;;5072799;28;20467;-74
2022/07/06 06:05:13;;;;;;;8.98;1.92;;;13.40;99.90;;;;;;5073314;28;20037;-75
2022/07/06 06:07:41;;;;;;;9.77;1.77;;;13.50;99.90;;;;;;5072637;28;20021;-71
2022/07/06 06:10:11;;;;;;;3.15;1.10;;;13.50;99.90;;;;;;5069822;28;20028;-74
2022/07/06 06:12:40;;;;;;;6.50;1.60;;;13.40;99.90;;;;;;5074118;28;20107;-72
2022/07/06 06:15:08;;;;;;;3.75;1.20;;;13.40;99.90;;;;;;5071989;28;20368;-72
2022/07/06 06:17:39;;;;;;;5.10;1.20;;;13.40;99.90;;;;;;5054482;28;20020;-73
2022/07/06 06:20:09;;;;;;;7.72;1.77;;;13.40;99.90;;;;;;5072694;28;20017;-74
2022/07/06 06:22:46;;;;;;;6.65;1.77;;;13.40;99.90;;;;;;5072095;28;20295;-72
2022/07/06 06:25:28;;;;;;;4.80;1.40;;;13.50;99.90;;;;;;5072893;28;20029;-72
2022/07/06 06:27:56;;;;;;;9.70;2.10;;;13.50;99.90;;;;;;5065034;28;20463;-73
2022/07/06 06:30:23;;;;;;;11.13;1.83;;;13.50;99.90;;;;;;5052810;28;20475;-73
2022/07/06 06:32:51;;;;;;;13.88;2.25;;;13.50;99.90;;;;;;5064930;28;20504;-69
2022/07/06 06:35:21;;;;;;;15.45;3.30;;;13.50;99.90;;;;;;5072437;28;20101;-71
2022/07/06 06:37:48;;;;;;;25.40;3.13;;;13.50;99.90;;;;;;5071604;28;20028;-72
2022/07/06 06:40:16;;;;;;;12.35;1.90;;;13.50;99.90;;;;;;5072780;28;20105;-72
2022/07/06 06:42:43;;;;;;;17.23;2.58;;;13.50;99.90;;;;;;5072644;28;20099;-73
2022/07/06 06:45:10;;;;;;;14.65;2.58;;;13.50;99.90;;;;;;5054647;28;20025;-69
2022/07/06 06:47:38;;;;;;;19.30;2.42;;;13.50;99.90;;;;;;5072567;28;20020;-70
2022/07/06 06:50:05;;;;;;;13.02;3.45;;;13.50;99.90;;;;;;5072652;28;20759;-69
2022/07/06 06:52:33;;;;;;;13.25;3.40;;;13.60;99.90;;;;;;5072815;28;20486;-69
2022/07/06 06:55:00;;;;;;;12.93;3.25;;;13.60;99.90;;;;;;5072548;28;20016;-69
2022/07/06 06:57:28;;;;;;;16.13;4.07;;;13.60;99.90;;;;;;5072748;28;20063;-69
2022/07/06 06:59:57;;;;;;;21.63;3.08;;;13.60;99.90;;;;;;5072097;28;20044;-68
2022/07/06 07:02:24;;;;;;;17.90;2.55;;;13.60;99.90;;;;;;5072708;28;20090;-69
2022/07/06 07:04:52;;;;;;;14.95;3.45;;;13.60;99.90;;;;;;5072750;28;20475;-69
2022/07/06 07:07:19;;;;;;;8.68;2.22;;;13.60;99.90;;;;;;5072537;28;20115;-69
2022/07/06 07:09:46;;;;;;;17.95;2.95;;;13.60;99.90;;;;;;5072209;28;20063;-69
2022/07/06 07:12:14;;;;;;;14.60;3.30;;;13.60;99.90;;;;;;5072393;28;20040;-71
2022/07/06 07:14:42;;;;;;;10.20;1.90;;;13.70;99.90;;;;;;5072571;28;20020;-69
2022/07/06 07:17:11;;;;;;;9.85;2.30;;;13.70;99.90;;;;;;5072692;28;20032;-74
2022/07/06 07:19:39;;;;;;;20.60;3.25;;;13.70;99.90;;;;;;5054527;28;20028;-72
2022/07/06 07:22:06;;;;;;;15.95;2.45;;;13.60;99.90;;;;;;5072667;28;20395;-75
2022/07/06 07:24:34;;;;;;;13.45;3.75;;;13.70;99.90;;;;;;5072427;28;20035;-71
2022/07/06 07:27:01;;;;;;;12.30;2.70;;;13.60;99.90;;;;;;5065070;28;20108;-72
2022/07/06 07:29:28;;;;;;;14.52;2.10;;;13.60;99.90;;;;;;5051905;28;20026;-73
2022/07/06 07:31:56;;;;;;;14.65;3.35;;;13.70;99.90;;;;;;5055260;28;20033;-73
2022/07/06 07:34:23;;;;;;;14.70;3.10;;;13.70;99.90;;;;;;5058636;28;20048;-77
2022/07/06 07:36:50;;;;;;;11.50;2.97;;;13.70;99.90;;;;;;5069383;28;20059;-76
2022/07/06 07:39:18;;;;;;;7.38;2.60;;;13.70;99.90;;;;;;5067212;28;20104;-74
2022/07/06 07:41:45;;;;;;;29.65;3.72;;;13.70;99.90;;;;;;5068000;28;20488;-73
2022/07/06 07:44:12;;;;;;;13.48;2.50;;;13.70;99.90;;;;;;5067926;28;20048;-77
2022/07/06 07:46:40;;;;;;;13.90;3.63;;;13.70;99.90;;;;;;5069574;28;20024;-76
2022/07/06 07:49:07;;;;;;;15.98;2.58;;;13.70;99.90;;;;;;5062261;28;20491;-76
2022/07/06 07:51:35;;;;;;;13.43;2.78;;;13.70;99.90;;;;;;5054958;28;20032;-77
2022/07/06 07:54:02;;;;;;;14.13;3.55;;;13.70;99.90;;;;;;5054737;28;20032;-74
2022/07/06 07:56:29;;;;;;;20.13;3.15;;;13.70;99.90;;;;;;5055653;28;20040;-77
2022/07/06 07:58:57;;;;;;;17.38;3.60;;;13.70;99.90;;;;;;5064889;28;20535;-74
2022/07/06 08:01:24;;;;;;;15.15;3.00;;;13.70;99.90;;;;;;5070679;28;20040;-76
2022/07/06 08:03:51;;;;;;;20.23;3.72;;;13.70;99.90;;;;;;5070524;28;20021;-77
2022/07/06 08:06:19;;;;;;;12.98;3.28;;;13.70;99.90;;;;;;5071601;28;20032;-76
2022/07/06 08:08:46;;;;;;;12.13;3.38;;;13.70;99.90;;;;;;5073100;28;20462;-77
2022/07/06 08:11:13;;;;;;;9.25;2.03;;;13.70;99.90;;;;;;5055479;28;20025;-77
2022/07/06 08:13:40;;;;;;;10.05;2.50;;;13.70;99.90;;;;;;5055441;28;20071;-77
2022/07/06 08:16:09;;;;;;;13.38;1.88;;;13.70;99.90;;;;;;5055517;28;20513;-72
2022/07/06 08:18:37;;;;;;;12.73;2.00;;;13.70;99.90;;;;;;5070752;28;20025;-76
2022/07/06 08:21:05;;;;;;;8.00;2.22;;;13.70;99.90;;;;;;5055594;28;20017;-71
2022/07/06 08:23:34;;;;;;;9.30;2.53;;;13.70;99.90;;;;;;5071353;28;20021;-72
2022/07/06 08:26:04;;;;;;;7.28;1.73;;;13.60;99.90;;;;;;5069978;28;20086;-77
2022/07/06 08:28:31;;;;;;;8.68;2.85;;;13.60;99.90;;;;;;5069526;28;20066;-76
2022/07/06 08:30:59;;;;;;;14.68;2.28;;;13.60;99.90;;;;;;5071505;28;20074;-77
2022/07/06 08:33:26;;;;;;;13.75;2.92;;;13.50;99.90;;;;;;5072668;28;20054;-72
2022/07/06 08:35:54;;;;;;;5.90;1.40;;;13.50;99.90;;;;;;5070439;28;20518;-78
2022/07/06 08:38:21;;;;;;;11.73;2.10;;;13.50;99.90;;;;;;5069386;28;20033;-71
2022/07/06 08:40:51;;;;;;;5.43;1.38;;;13.50;99.90;;;;;;5071823;28;20359;-77
2022/07/06 08:43:19;;;;;;;7.63;1.55;;;13.50;99.90;;;;;;5071024;28;20039;-77
2022/07/06 08:45:49;;;;;;;5.82;1.27;;;13.50;99.90;;;;;;5072507;28;20082;-76
2022/07/06 08:48:18;;;;;;;6.75;1.52;;;13.50;99.90;;;;;;5072313;28;20043;-75
2022/07/06 08:50:45;;;;;;;8.52;2.22;;;13.50;99.90;;;;;;5055508;28;20024;-70
2022/07/06 08:53:13;;;;;;;5.85;1.50;;;13.50;99.90;;;;;;5067528;28;20077;-72
2022/07/06 08:55:40;;;;;;;6.88;2.40;;;13.50;99.90;;;;;;5052154;28;20413;-77
2022/07/06 08:58:09;;;;;;;11.50;1.73;;;13.50;99.90;;;;;;5071524;28;20078;-73
2022/07/06 09:00:37;;;;;;;4.50;1.25;;;13.50;99.90;;;;;;5046696;28;20119;-76
2022/07/06 09:03:06;;;;;;;5.97;2.13;;;13.50;99.90;;;;;;5052542;28;20079;-77
2022/07/06 09:05:45;;;;;;;5.10;2.00;;;13.60;99.90;;;;;;5053081;28;20033;-76
2022/07/06 09:08:13;;;;;;;11.90;2.70;;;13.50;99.90;;;;;;5050459;28;20033;-75
2022/07/06 09:10:40;;;;;;;8.52;2.05;;;13.60;99.90;;;;;;5048312;28;20460;-71
2022/07/06 09:13:09;;;;;;;4.80;1.50;;;13.60;99.90;;;;;;5050776;28;20051;-76
2022/07/06 09:15:39;;;;;;;7.07;1.40;;;13.60;99.90;;;;;;5050186;28;20033;-77
2022/07/06 09:18:07;;;;;;;12.85;2.17;;;13.60;99.90;;;;;;5050609;28;20525;-75
2022/07/06 09:20:35;;;;;;;6.53;1.80;;;13.70;99.90;;;;;;5051600;28;20096;-76
2022/07/06 09:23:05;;;;;;;3.13;1.48;;;13.60;99.90;;;;;;5048262;28;20127;-77
2022/07/06 09:25:34;;;;;;;5.43;1.33;;;13.70;99.90;;;;;;5051795;28;20024;-76
2022/07/06 09:28:02;;;;;;;5.25;1.48;;;13.70;99.90;;;;;;5049120;28;20029;-77
2022/07/06 09:30:30;;;;;;;5.90;1.88;;;13.70;99.90;;;;;;5051082;28;20548;-77
2022/07/06 09:32:59;;;;;;;6.70;2.03;;;13.70;99.90;;;;;;5034033;28;20048;-76
2022/07/06 09:35:32;;;;;;;9.52;2.65;;;13.60;99.90;;;;;;5034288;28;20029;-77
2022/07/06 09:38:03;;;;;;;5.35;1.77;;;13.60;99.90;;;;;;5049165;28;20403;-77
2022/07/06 09:40:39;;;;;;;5.45;1.80;;;13.60;99.90;;;;;;5054078;28;20027;-77
2022/07/06 09:43:18;;;;;;;8.30;1.42;;;13.70;99.90;;;;;;5052733;28;20074;-77
2022/07/06 09:45:49;;;;;;;5.65;1.50;;;13.60;99.90;;;;;;5054253;28;20021;-78
2022/07/06 09:48:21;;;;;;;6.50;1.70;;;13.60;99.90;;;;;;5053847;28;20029;-79
2022/07/06 09:50:52;;;;;;;5.88;1.88;;;13.60;99.90;;;;;;5053575;28;20025;-77
2022/07/06 09:53:21;;;;;;;7.70;2.63;;;13.60;99.90;;;;;;5053899;28;20035;-78
2022/07/06 09:55:50;;;;;;;7.40;2.50;;;13.50;99.90;;;;;;5053386;28;20367;-79
2022/07/06 09:58:19;;;;;;;4.78;2.60;;;13.60;99.90;;;;;;5053293;28;20099;-71
2022/07/06 10:00:48;;;;;;;11.85;3.45;;;13.50;99.90;;;;;;5061587;28;20040;-86
2022/07/06 10:03:17;;;;;;;4.88;2.97;;;13.50;99.90;;;;;;5069785;28;20034;-81
2022/07/06 10:05:49;;;;;;;4.15;3.20;;;13.40;99.90;;;;;;5065486;28;20086;-83
2022/07/06 10:08:18;;;;;;;5.20;2.78;;;13.40;99.90;;;;;;5052665;28;20124;-83
2022/07/06 10:10:47;;;;;;;4.57;3.15;;;13.40;99.90;;;;;;5052501;28;20017;-82
2022/07/06 10:13:20;;;;;;;10.30;3.30;;;13.30;99.90;;;;;;5051622;28;20479;-80
2022/07/06 10:15:48;;;;;;;4.85;2.53;;;13.30;99.90;;;;;;5034812;28;20029;-81
2022/07/06 10:18:16;;;;;;;4.60;2.33;;;13.30;99.90;;;;;;5052699;28;20040;-82
2022/07/06 10:20:43;;;;;;;2.67;1.80;;;13.30;99.90;;;;;;5057600;28;20428;-84
2022/07/06 10:23:11;;;;;;;5.63;1.73;;;13.30;99.90;;;;;;5045385;28;20418;-82
2022/07/06 10:25:39;;;;;;;6.13;2.17;;;13.30;99.90;;;;;;5055094;28;20507;-85
2022/07/06 10:28:13;;;;;;;2.60;1.75;;;13.20;99.90;;;;;;5052545;28;20025;-80
2022/07/06 10:30:42;;;;;;;5.78;1.73;;;13.20;99.90;;;;;;5061181;28;20028;-80
2022/07/06 10:33:11;;;;;;;3.13;2.10;;;13.20;99.90;;;;;;5054365;28;20032;-87
2022/07/06 10:35:41;;;;;;;3.65;2.15;;;13.20;99.90;;;;;;5054955;28;20025;-85
2022/07/06 10:38:10;;;;;;;6.05;1.80;;;13.20;99.90;;;;;;5054889;28;20020;-87
2022/07/06 10:43:42;;;;;;;4.65;2.25;;;13.20;99.90;;;;;;5053985;28;20040;-85
2022/07/06 10:46:19;;;;;;;4.00;1.90;;;13.10;99.90;;;;;;5060305;28;20112;-83
2022/07/06 10:48:48;;;;;;;2.15;1.85;;;13.10;99.90;;;;;;5071684;28;20040;-75
2022/07/06 10:51:33;;;;;;;2.70;2.17;;;13.20;99.90;;;;;;5070902;28;20033;-83
2022/07/06 10:54:05;;;;;;;3.38;1.60;;;13.20;99.90;;;;;;5072697;28;20560;-83
2022/07/06 10:56:45;;;;;;;4.25;1.85;;;13.10;99.90;;;;;;5072922;28;20937;-86
2022/07/06 10:59:16;;;;;;;3.65;2.00;;;13.10;99.90;;;;;;5072601;28;20103;-82
2022/07/06 11:02:13;;;;;;;7.38;2.20;;;13.20;99.90;;;;;;5072435;28;20398;-76
2022/07/06 11:04:41;;;;;;;;;;;13.10;99.90;;;;;;5072198;28;20031;-79
2022/07/06 11:07:19;;;;;;;4.80;1.58;;;13.20;99.90;;;;;;5071832;28;19995;-78
2022/07/06 11:10:00;;;;;;;7.38;1.77;;;13.10;99.90;;;;;;5072700;28;20025;-81
2022/07/06 11:12:28;;;;;;;2.70;1.73;;;13.10;99.90;;;;;;5071984;28;20045;-83
2022/07/06 11:14:55;;;;;;;2.55;2.10;;;13.10;99.90;;;;;;5071464;28;20051;-77
2022/07/06 11:17:23;;;;;;;3.05;1.35;;;13.10;99.90;;;;;;5072005;28;20025;-76
2022/07/06 11:19:57;;;;;;;3.67;1.73;;;13.10;99.90;;;;;;5072331;28;20044;-76
2022/07/06 11:22:27;;;;;;;2.20;1.77;;;13.10;99.90;;;;;;5072480;28;20387;-76
2022/07/06 11:24:58;;;;;;;3.05;1.33;;;13.10;99.90;;;;;;5075558;28;20063;-77
2022/07/06 11:27:26;;;;;;;1.45;1.13;;;13.10;99.90;;;;;;5076028;28;20422;-79
2022/07/06 11:29:55;;;;;;;2.97;1.23;;;13.10;99.90;;;;;;5065872;28;20071;-79
2022/07/06 11:32:28;;;;;;;1.48;1.00;;;13.10;99.90;;;;;;5073830;28;20066;-80
2022/07/06 11:34:57;;;;;;;1.05;0.77;;;13.00;99.90;;;;;;5076109;28;20020;-80
2022/07/06 11:37:25;;;;;;;2.05;1.20;;;13.00;99.90;;;;;;5076153;28;20047;-79
2022/07/06 11:39:53;;;;;;;1.80;1.05;;;13.00;99.90;;;;;;5076320;28;20546;-77
2022/07/06 11:42:24;;;;;;;1.30;0.80;;;13.00;99.90;;;;;;5076230;28;20032;-77
2022/07/06 11:44:55;;;;;;;6.60;1.30;;;13.00;99.90;;;;;;5076450;28;20054;-76
2022/07/06 11:47:30;;;;;;;1.58;0.90;;;13.00;99.90;;;;;;5076742;28;20016;-79
2022/07/06 11:50:04;;;;;;;1.52;1.10;;;13.00;99.90;;;;;;5076823;28;20021;-78
2022/07/06 11:52:32;;;;;;;2.55;1.45;;;13.00;99.90;;;;;;5076228;28;20047;-80
2022/07/06 11:55:00;;;;;;;4.18;1.70;;;13.00;99.90;;;;;;5058281;28;20028;-79
2022/07/06 11:57:30;;;;;;;4.47;3.13;;;13.00;99.90;;;;;;5076258;28;20486;-79
2022/07/06 11:59:58;;;;;;;2.90;1.90;;;13.00;99.90;;;;;;5076179;28;20028;-82
2022/07/06 12:02:26;;;;;;;3.55;2.25;;;13.00;99.90;;;;;;5076412;28;20039;-79
2022/07/06 12:04:53;;;;;;;4.10;2.70;;;12.90;99.90;;;;;;5075979;28;20024;-80
2022/07/06 12:07:21;;;;;;;1.67;1.20;;;12.90;99.90;;;;;;5076077;28;20082;-78
2022/07/06 12:09:48;;;;;;;4.30;1.50;;;12.90;99.90;;;;;;5075990;28;20025;-78
2022/07/06 12:12:17;;;;;;;2.47;1.95;;;12.90;99.90;;;;;;5075724;28;20036;-80
2022/07/06 12:14:45;;;;;;;3.47;2.17;;;12.90;99.90;;;;;;5075695;28;20066;-76
2022/07/06 12:17:14;;;;;;;3.00;2.00;;;12.90;99.90;;;;;;5075833;28;20206;-76
2022/07/06 12:19:42;;;;;;;3.78;2.97;;;12.90;99.90;;;;;;5075921;28;20012;-75
2022/07/06 12:22:11;;;;;;;3.97;2.95;;;12.90;99.90;;;;;;5075871;28;20024;-79
2022/07/06 12:24:45;;;;;;;3.85;1.92;;;12.90;99.90;;;;;;5075405;28;20096;-73
2022/07/06 12:27:18;;;;;;;2.85;1.90;;;12.90;99.90;;;;;;5075697;28;20482;-78
2022/07/06 12:29:46;;;;;;;1.80;1.38;;;12.90;99.90;;;;;;5075700;28;20445;-82
2022/07/06 12:32:18;;;;;;;2.53;1.77;;;12.90;99.90;;;;;;5075412;28;20578;-72
2022/07/06 12:34:46;;;;;;;4.25;1.30;;;12.90;99.90;;;;;;5074686;28;20031;-76
2022/07/06 12:37:15;;;;;;;5.18;1.40;;;12.80;99.90;;;;;;5075178;28;20112;-75
2022/07/06 12:39:47;;;;;;;1.48;1.30;;;12.80;99.90;;;;;;5065480;28;20024;-78
2022/07/06 12:42:16;;;;;;;2.08;1.55;;;12.80;99.90;;;;;;5071620;28;20029;-72
2022/07/06 12:44:46;;;;;;;2.40;1.20;;;12.80;99.90;;;;;;5053957;28;20017;-76
2022/07/06 12:47:17;;;;;;;1.30;0.98;;;12.80;99.90;;;;;;5054568;28;20383;-77
2022/07/06 12:49:46;;;;;;;1.45;0.90;;;12.80;99.90;;;;;;5054353;28;20025;-79
2022/07/06 12:52:17;;;;;;;2.90;1.52;;;12.80;99.90;;;;;;5054245;28;20060;-78
2022/07/06 12:54:50;;;;;;;1.13;1.02;;;12.80;99.90;;;;;;5055519;28;20021;-77
2022/07/06 12:57:26;;;;;;;1.35;1.02;;;12.80;99.90;;;;;;5054212;28;20032;-77
2022/07/06 12:59:53;;;;;;;1.40;0.93;;;12.80;99.90;;;;;;5054130;28;20017;-78